Time;durP1;ratioP1;P1;durP2;ratioP2;P2;SDS_P1;SDS_P2;PMS_P1;PMS_P2;Temp;Humidity;BMP_temperature;BMP_pressure;BME280_temperature;BME280_humidity;BME280_pressure;Samples;Min_cycle;Max_cycle;Signal;HPM_P1;HPM_P2
2023/04/26 00:01:36;;;;;;;5.38;2.38;;;;;;;4.20;64.04;100523.09;5034362;28;20060;-58
2023/04/26 00:04:03;;;;;;;6.30;2.22;;;;;;;4.17;63.48;100527.22;5047571;28;20089;-60
2023/04/26 00:06:32;;;;;;;7.07;2.08;;;;;;;4.12;64.81;100531.91;5054458;28;20080;-60
2023/04/26 00:08:59;;;;;;;5.13;1.90;;;;;;;4.06;63.88;100534.63;5053021;28;20475;-60
2023/04/26 00:11:26;;;;;;;5.82;2.15;;;;;;;4.07;64.44;100529.94;5050632;28;20170;-58
2023/04/26 00:13:54;;;;;;;3.63;1.92;;;;;;;4.02;64.60;100541.78;5054483;28;20394;-58
2023/04/26 00:16:21;;;;;;;5.43;1.70;;;;;;;4.02;64.91;100541.78;5054571;28;20060;-61
2023/04/26 00:18:48;;;;;;;4.78;2.22;;;;;;;3.94;64.74;100545.03;5054382;28;20059;-60
2023/04/26 00:21:16;;;;;;;5.82;2.00;;;;;;;3.92;64.98;100543.66;5052526;28;20064;-60
2023/04/26 00:23:44;;;;;;;5.90;2.20;;;;;;;3.84;64.36;100547.75;5054597;28;20060;-60
2023/04/26 00:26:11;;;;;;;4.82;2.60;;;;;;;3.85;65.46;100536.47;5050574;28;20494;-60
2023/04/26 00:28:39;;;;;;;4.85;2.17;;;;;;;3.81;65.06;100542.78;5052706;28;20086;-60
2023/04/26 00:31:06;;;;;;;4.07;2.20;;;;;;;3.82;64.29;100537.00;5054056;28;20048;-60
2023/04/26 00:33:33;;;;;;;3.35;2.00;;;;;;;3.79;65.88;100532.03;5054056;28;20501;-59
2023/04/26 00:36:00;;;;;;;8.10;2.33;;;;;;;3.75;64.60;100533.66;5054146;28;20060;-60
2023/04/26 00:38:28;;;;;;;6.03;2.15;;;;;;;3.67;66.25;100539.66;5054277;28;20474;-60
2023/04/26 00:40:56;;;;;;;8.63;2.47;;;;;;;3.69;66.45;100533.91;5049988;28;20049;-60
2023/04/26 00:43:23;;;;;;;6.50;2.42;;;;;;;3.60;66.13;100528.91;5053616;28;20049;-60
2023/04/26 00:45:52;;;;;;;4.45;2.22;;;;;;;3.58;65.97;100525.56;5054261;28;20410;-61
2023/04/26 00:48:20;;;;;;;6.70;2.70;;;;;;;3.56;65.79;100529.69;5054326;28;20052;-60
2023/04/26 00:50:48;;;;;;;6.90;2.28;;;;;;;3.49;66.76;100527.19;5035454;28;20064;-60
2023/04/26 00:53:17;;;;;;;6.82;2.15;;;;;;;3.53;66.83;100525.56;5033930;28;20380;-60
2023/04/26 00:55:45;;;;;;;3.40;2.10;;;;;;;3.53;65.35;100524.72;5044769;28;20497;-60
2023/04/26 00:58:13;;;;;;;7.10;2.72;;;;;;;3.53;66.46;100527.47;5052907;28;20414;-60
2023/04/26 01:00:40;;;;;;;5.88;2.30;;;;;;;3.54;65.28;100529.13;5052169;28;20058;-59
2023/04/26 01:03:08;;;;;;;6.90;2.70;;;;;;;3.49;66.06;100521.69;5053493;28;20063;-60
2023/04/26 01:05:35;;;;;;;5.35;2.58;;;;;;;3.47;66.23;100520.28;5053595;28;20053;-60
2023/04/26 01:08:03;;;;;;;5.28;2.13;;;;;;;3.47;65.55;100531.31;5053406;28;20061;-60
2023/04/26 01:10:32;;;;;;;3.63;2.20;;;;;;;3.44;66.60;100521.63;5046990;28;20053;-60
2023/04/26 01:13:00;;;;;;;7.05;2.20;;;;;;;3.40;66.04;100526.00;5041932;28;20053;-59
2023/04/26 01:15:29;;;;;;;5.03;2.40;;;;;;;3.39;67.07;100521.63;5033200;28;20061;-60
2023/04/26 01:17:56;;;;;;;5.90;2.40;;;;;;;3.36;67.15;100522.13;5033099;28;20053;-59
2023/04/26 01:20:24;;;;;;;7.13;2.78;;;;;;;3.32;65.85;100527.34;5045440;28;20410;-60
2023/04/26 01:22:53;;;;;;;5.00;2.70;;;;;;;3.23;66.89;100521.50;5052634;28;20056;-60
2023/04/26 01:25:21;;;;;;;5.55;2.83;;;;;;;3.25;66.04;100527.59;5047843;28;20063;-60
2023/04/26 01:27:48;;;;;;;4.53;2.70;;;;;;;3.25;67.61;100524.84;5052727;28;20053;-60
2023/04/26 01:30:15;;;;;;;7.57;3.00;;;;;;;3.21;66.18;100523.69;5040390;28;20053;-59
2023/04/26 01:32:43;;;;;;;5.45;2.72;;;;;;;3.14;67.56;100531.34;5033157;28;20398;-60
2023/04/26 01:35:10;;;;;;;5.30;2.80;;;;;;;3.12;67.58;100528.03;5049039;28;20045;-59
2023/04/26 01:37:37;;;;;;;7.65;2.55;;;;;;;3.11;66.72;100536.53;5052682;28;20402;-59
2023/04/26 01:40:08;;;;;;;7.82;3.05;;;;;;;3.08;67.64;100532.38;5044210;28;20045;-59
2023/04/26 01:42:35;;;;;;;4.55;2.40;;;;;;;3.01;66.54;100532.63;5032591;28;20167;-59
2023/04/26 01:45:04;;;;;;;8.25;3.53;;;;;;;3.01;67.83;100537.28;5032708;28;20045;-59
2023/04/26 01:47:31;;;;;;;4.35;2.28;;;;;;;2.99;67.58;100542.22;5032279;28;20514;-59
2023/04/26 01:49:58;;;;;;;7.30;2.92;;;;;;;2.97;67.84;100544.41;5040665;28;20056;-60
2023/04/26 01:52:25;;;;;;;7.55;3.50;;;;;;;2.94;67.50;100542.16;5052348;28;20049;-60
2023/04/26 01:54:53;;;;;;;5.15;2.35;;;;;;;2.98;66.72;100544.16;5048867;28;20391;-59
2023/04/26 01:57:21;;;;;;;6.60;2.50;;;;;;;2.94;67.03;100539.41;5052605;28;20061;-59
2023/04/26 01:59:48;;;;;;;6.68;2.53;;;;;;;2.91;67.63;100534.47;5050554;28;20413;-59
2023/04/26 02:02:17;;;;;;;7.40;2.80;;;;;;;2.91;68.08;100531.69;5052632;28;20509;-64
2023/04/26 02:04:44;;;;;;;7.57;2.50;;;;;;;2.86;68.21;100538.00;5052872;28;20071;-59
2023/04/26 02:07:11;;;;;;;5.97;2.67;;;;;;;2.81;68.10;100536.03;5052525;28;20049;-59
2023/04/26 02:09:39;;;;;;;5.05;2.63;;;;;;;2.84;68.20;100535.50;5047529;28;20422;-59
2023/04/26 02:12:06;;;;;;;6.85;2.78;;;;;;;2.83;67.47;100528.34;5037450;28;20065;-58
2023/04/26 02:14:35;;;;;;;5.93;3.63;;;;;;;2.82;67.67;100531.34;5032808;28;20376;-59
2023/04/26 02:17:03;;;;;;;7.30;2.85;;;;;;;2.82;67.80;100531.34;5032219;28;20057;-59
2023/04/26 02:19:30;;;;;;;6.75;3.13;;;;;;;2.80;67.44;100537.13;5032412;28;20061;-59
2023/04/26 02:21:58;;;;;;;7.32;3.60;;;;;;;2.72;67.61;100532.09;5032235;28;20053;-59
2023/04/26 02:24:25;;;;;;;10.50;3.65;;;;;;;2.67;68.04;100529.31;5032656;28;20049;-59
2023/04/26 02:26:53;;;;;;;15.50;3.30;;;;;;;2.56;68.91;100533.88;5031598;28;20053;-59
2023/04/26 02:29:20;;;;;;;8.27;3.40;;;;;;;2.62;68.87;100537.47;5032955;28;20057;-60
2023/04/26 02:31:49;;;;;;;5.68;2.67;;;;;;;2.70;68.17;100539.75;5035875;28;20053;-59
2023/04/26 02:34:16;;;;;;;7.57;2.92;;;;;;;2.66;67.91;100535.06;5040310;28;20053;-59
2023/04/26 02:36:43;;;;;;;10.10;3.40;;;;;;;2.63;68.70;100539.97;5051924;28;20053;-59
2023/04/26 02:39:11;;;;;;;7.85;3.10;;;;;;;2.55;68.91;100534.94;5049869;28;20057;-59
2023/04/26 02:41:38;;;;;;;5.40;2.65;;;;;;;2.57;69.18;100534.69;5050322;28;20064;-60
2023/04/26 02:44:06;;;;;;;4.57;2.63;;;;;;;2.57;69.16;100537.44;5051922;28;20061;-59
2023/04/26 02:46:33;;;;;;;11.77;3.28;;;;;;;2.56;68.02;100539.38;5051983;28;20056;-60
2023/04/26 02:49:02;;;;;;;5.65;3.15;;;;;;;2.61;68.53;100536.66;5051263;28;20401;-59
2023/04/26 02:51:29;;;;;;;5.18;2.75;;;;;;;2.57;68.70;100535.53;5051588;28;20053;-60
2023/04/26 02:53:56;;;;;;;7.50;3.10;;;;;;;2.45;69.12;100529.34;5051975;28;20056;-59
2023/04/26 02:56:24;;;;;;;6.90;2.95;;;;;;;2.41;69.06;100530.94;5048036;28;20056;-59
2023/04/26 02:58:51;;;;;;;8.38;3.35;;;;;;;2.39;69.52;100533.97;5052024;28;20406;-59
2023/04/26 03:01:18;;;;;;;7.25;3.10;;;;;;;2.41;68.95;100533.69;5049711;28;20064;-60
2023/04/26 03:03:46;;;;;;;7.05;3.03;;;;;;;2.41;68.48;100533.69;5051542;28;20060;-60
2023/04/26 03:06:14;;;;;;;8.85;4.10;;;;;;;2.36;69.93;100531.72;5051646;28;20056;-59
2023/04/26 03:08:41;;;;;;;5.60;2.85;;;;;;;2.35;69.69;100524.59;5051945;28;20064;-59
2023/04/26 03:11:09;;;;;;;6.10;3.33;;;;;;;2.31;69.19;100528.09;5034726;28;20421;-60
2023/04/26 03:13:36;;;;;;;8.07;3.13;;;;;;;2.28;68.74;100526.69;5031458;28;20053;-59
2023/04/26 03:16:03;;;;;;;7.22;4.05;;;;;;;2.25;68.93;100532.72;5031559;28;20506;-59
2023/04/26 03:18:30;;;;;;;8.73;3.45;;;;;;;2.24;69.35;100539.28;5031798;28;20053;-60
2023/04/26 03:20:58;;;;;;;6.30;3.30;;;;;;;2.25;69.95;100532.72;5047539;28;20053;-59
2023/04/26 03:23:27;;;;;;;6.97;3.83;;;;;;;2.22;69.17;100528.53;5055458;28;20056;-59
2023/04/26 03:25:54;;;;;;;9.68;3.47;;;;;;;2.20;69.18;100527.13;5051488;28;20045;-60
2023/04/26 03:28:22;;;;;;;7.88;3.65;;;;;;;2.21;70.16;100524.16;5055303;28;20470;-59
2023/04/26 03:30:49;;;;;;;8.05;3.30;;;;;;;2.22;70.23;100525.78;5053276;28;20509;-60
2023/04/26 03:33:17;;;;;;;5.93;3.40;;;;;;;2.24;69.18;100528.28;5055001;28;20049;-59
2023/04/26 03:35:44;;;;;;;10.20;4.35;;;;;;;2.17;70.35;100525.75;5055048;28;20053;-59
2023/04/26 03:38:11;;;;;;;8.50;3.80;;;;;;;2.20;70.16;100524.41;5054946;28;20053;-59
2023/04/26 03:40:40;;;;;;;10.27;4.07;;;;;;;2.23;69.77;100524.72;5042675;28;20521;-59
2023/04/26 03:43:07;;;;;;;7.55;3.20;;;;;;;2.25;69.99;100521.72;5034740;28;20115;-61
2023/04/26 03:45:35;;;;;;;7.40;3.65;;;;;;;2.23;69.87;100524.72;5034710;28;20061;-60
2023/04/26 03:48:02;;;;;;;10.73;4.00;;;;;;;2.22;69.75;100520.28;5034531;28;20521;-60
2023/04/26 03:50:30;;;;;;;7.75;3.65;;;;;;;2.17;68.98;100522.19;5052259;28;20049;-60
2023/04/26 03:52:57;;;;;;;6.63;3.72;;;;;;;2.16;70.01;100523.25;5054666;28;20060;-60
2023/04/26 03:55:24;;;;;;;5.75;2.88;;;;;;;2.19;68.95;100522.75;5050712;28;20379;-59
2023/04/26 03:57:53;;;;;;;8.40;3.40;;;;;;;2.12;69.22;100525.69;5054763;28;20053;-60
2023/04/26 04:00:21;;;;;;;9.52;3.70;;;;;;;2.12;69.78;100522.94;5051065;28;20437;-59
2023/04/26 04:02:48;;;;;;;5.70;3.53;;;;;;;2.13;69.84;100524.59;5054556;28;20415;-59
2023/04/26 04:05:15;;;;;;;6.10;3.13;;;;;;;2.10;69.61;100524.28;5054211;28;20068;-60
2023/04/26 04:07:43;;;;;;;9.93;3.75;;;;;;;2.07;70.49;100522.88;5054233;28;20060;-60
2023/04/26 04:10:10;;;;;;;6.95;3.63;;;;;;;2.06;70.02;100520.38;5050559;28;20045;-59
2023/04/26 04:12:38;;;;;;;7.82;3.30;;;;;;;2.13;70.37;100523.78;5052037;28;20061;-59
2023/04/26 04:15:09;;;;;;;9.82;3.40;;;;;;;2.14;69.14;100520.78;5054879;28;20478;-60
2023/04/26 04:17:37;;;;;;;9.40;4.57;;;;;;;2.11;69.27;100514.97;5054202;28;20052;-59
2023/04/26 04:20:06;;;;;;;6.75;3.63;;;;;;;2.08;70.17;100513.56;5052395;28;20045;-59
2023/04/26 04:22:33;;;;;;;5.95;3.53;;;;;;;2.14;70.30;100514.44;5054411;28;20502;-59
2023/04/26 04:25:00;;;;;;;9.90;4.40;;;;;;;2.14;69.98;100523.53;5049817;28;20471;-59
2023/04/26 04:27:27;;;;;;;8.38;3.97;;;;;;;2.18;69.80;100518.31;5034195;28;20049;-60
2023/04/26 04:29:55;;;;;;;5.68;3.85;;;;;;;2.20;69.60;100525.22;5035522;28;20375;-59
2023/04/26 04:32:23;;;;;;;10.32;4.75;;;;;;;2.21;69.15;100523.31;5036197;28;20061;-59
2023/04/26 04:34:52;;;;;;;5.78;3.45;;;;;;;2.19;69.30;100523.56;5048861;28;20056;-59
2023/04/26 04:37:20;;;;;;;10.68;4.43;;;;;;;2.19;69.54;100526.31;5054115;28;20052;-59
2023/04/26 04:39:47;;;;;;;6.95;3.75;;;;;;;2.22;70.03;100522.22;5053253;28;20060;-59
2023/04/26 04:42:14;;;;;;;7.20;3.88;;;;;;;2.26;69.57;100528.88;5033201;28;20068;-59
2023/04/26 04:44:42;;;;;;;8.27;4.15;;;;;;;2.29;69.23;100533.84;5034417;28;20060;-59
2023/04/26 04:47:09;;;;;;;8.02;4.30;;;;;;;2.34;69.37;100542.16;5032126;28;20049;-60
2023/04/26 04:49:37;;;;;;;9.90;4.85;;;;;;;2.39;70.00;100536.72;5033659;28;20060;-59
2023/04/26 04:52:06;;;;;;;8.30;4.55;;;;;;;2.39;69.27;100547.72;5033841;28;20380;-59
2023/04/26 04:54:33;;;;;;;9.10;4.40;;;;;;;2.46;69.39;100543.91;5037673;28;20516;-60
2023/04/26 04:57:01;;;;;;;10.20;5.75;;;;;;;2.52;70.16;100542.88;5033426;28;20049;-60
2023/04/26 04:59:29;;;;;;;21.40;6.05;;;;;;;2.66;68.73;100549.63;5041949;28;20052;-59
2023/04/26 05:01:57;;;;;;;10.80;6.05;;;;;;;2.70;69.75;100553.50;5051879;28;20057;-59
2023/04/26 05:04:24;;;;;;;11.45;4.40;;;;;;;2.76;68.72;100535.16;5044176;28;20056;-59
2023/04/26 05:06:52;;;;;;;7.80;4.00;;;;;;;2.82;69.06;100536.84;5036179;28;20052;-59
2023/04/26 05:09:20;;;;;;;9.38;4.65;;;;;;;2.88;68.83;100540.47;5034774;28;20493;-59
2023/04/26 05:11:47;;;;;;;10.02;4.68;;;;;;;2.93;69.21;100544.09;5048462;28;20063;-59
2023/04/26 05:14:14;;;;;;;8.55;4.57;;;;;;;3.03;68.71;100546.13;5037592;28;20061;-59
2023/04/26 05:16:42;;;;;;;8.45;3.92;;;;;;;3.05;68.97;100542.00;5047050;28;20045;-60
2023/04/26 05:19:09;;;;;;;9.23;5.40;;;;;;;3.19;67.49;100542.41;5049537;28;20057;-60
2023/04/26 05:21:36;;;;;;;11.57;5.32;;;;;;;3.24;68.57;100552.63;5044277;28;20060;-60
2023/04/26 05:24:05;;;;;;;14.93;10.10;;;;;;;3.34;68.36;100546.34;5037732;28;20509;-61
2023/04/26 05:26:35;;;;;;;14.27;11.50;;;;;;;3.44;67.14;100554.66;5046586;28;20049;-60
2023/04/26 05:29:02;;;;;;;13.75;7.95;;;;;;;3.52;67.96;100556.09;5047642;28;20491;-59
2023/04/26 05:31:30;;;;;;;14.30;6.10;;;;;;;3.52;68.50;100554.19;5040947;28;20048;-60
2023/04/26 05:33:57;;;;;;;14.02;8.70;;;;;;;3.71;68.24;100559.25;5042388;28;20453;-60
2023/04/26 05:36:25;;;;;;;9.85;6.82;;;;;;;3.80;66.82;100563.16;5034468;28;20046;-59
2023/04/26 05:38:53;;;;;;;11.10;6.13;;;;;;;3.70;67.63;100572.22;5041043;28;20072;-61
2023/04/26 05:41:21;;;;;;;12.32;6.47;;;;;;;3.75;66.96;100572.22;5033131;28;20482;-57
2023/04/26 05:43:49;;;;;;;9.98;5.65;;;;;;;3.92;68.06;100571.22;5032463;28;20371;-57
2023/04/26 05:46:16;;;;;;;13.88;6.25;;;;;;;4.11;66.51;100572.41;5032099;28;20153;-57
2023/04/26 05:48:43;;;;;;;11.45;6.15;;;;;;;4.20;66.94;100572.72;5032426;28;20053;-57
2023/04/26 05:51:11;;;;;;;10.43;6.05;;;;;;;4.44;66.54;100571.16;5032556;28;20494;-57
2023/04/26 05:53:38;;;;;;;15.20;6.32;;;;;;;4.53;66.94;100581.66;5051179;28;20061;-61
2023/04/26 05:56:05;;;;;;;9.95;6.03;;;;;;;4.66;66.02;100581.13;5050885;28;20048;-62
2023/04/26 05:58:34;;;;;;;11.18;6.32;;;;;;;4.80;65.59;100570.41;5052326;28;20056;-61
2023/04/26 06:01:01;;;;;;;12.85;5.95;;;;;;;4.85;65.48;100576.78;5050755;28;20421;-61
2023/04/26 06:03:29;;;;;;;14.68;6.38;;;;;;;5.00;65.01;100588.94;5052529;28;20057;-61
2023/04/26 06:05:56;;;;;;;8.93;6.45;;;;;;;5.11;65.09;100576.81;5052524;28;20057;-61
2023/04/26 06:08:23;;;;;;;10.73;5.78;;;;;;;5.37;64.74;100587.84;5052336;28;20398;-61
2023/04/26 06:10:51;;;;;;;9.95;6.50;;;;;;;5.38;64.50;100587.56;5048491;28;20474;-61
2023/04/26 06:13:18;;;;;;;12.68;7.53;;;;;;;5.60;64.68;100583.69;5052019;28;20060;-62
2023/04/26 06:15:46;;;;;;;9.50;6.13;;;;;;;5.61;64.15;100586.16;5052110;28;20056;-62
2023/04/26 06:18:14;;;;;;;13.00;6.70;;;;;;;5.81;64.01;100581.72;5052235;28;20045;-61
2023/04/26 06:20:41;;;;;;;11.57;6.95;;;;;;;5.77;64.19;100588.91;5036725;28;20056;-62
2023/04/26 06:23:08;;;;;;;10.55;7.40;;;;;;;6.02;63.70;100593.56;5043737;28;20501;-62
2023/04/26 06:25:36;;;;;;;14.75;8.40;;;;;;;6.26;63.25;100593.78;5043826;28;20450;-60
2023/04/26 06:28:04;;;;;;;15.40;7.32;;;;;;;6.38;63.34;100598.97;5048017;28;20045;-61
2023/04/26 06:30:31;;;;;;;14.30;7.07;;;;;;;6.43;62.48;100597.03;5037088;28;20053;-62
2023/04/26 06:33:00;;;;;;;15.80;8.52;;;;;;;6.42;62.60;100592.56;5036032;28;20048;-62
2023/04/26 06:35:27;;;;;;;15.88;8.30;;;;;;;6.65;63.03;100593.84;5044434;28;20067;-61
2023/04/26 06:37:55;;;;;;;15.32;8.45;;;;;;;6.83;63.07;100597.09;5046271;28;20045;-61
2023/04/26 06:40:22;;;;;;;18.02;10.60;;;;;;;6.94;61.79;100590.38;5036771;28;20466;-61
2023/04/26 06:42:49;;;;;;;81.95;25.27;;;;;;;7.12;62.31;100591.63;5050749;28;20132;-62
2023/04/26 06:45:17;;;;;;;19.85;9.98;;;;;;;7.23;62.09;100582.13;5051482;28;20049;-60
2023/04/26 06:47:45;;;;;;;18.70;9.10;;;;;;;7.42;60.44;100586.97;5051521;28;20053;-61
2023/04/26 06:50:14;;;;;;;13.32;8.65;;;;;;;7.62;60.18;100578.47;5049889;28;20064;-61
2023/04/26 06:52:41;;;;;;;17.60;9.65;;;;;;;7.59;59.93;100584.56;5047634;28;20065;-61
2023/04/26 06:55:10;;;;;;;15.52;9.32;;;;;;;7.79;60.00;100588.25;5042365;28;20061;-61
2023/04/26 06:57:37;;;;;;;17.15;9.38;;;;;;;8.09;59.69;100593.47;5036498;28;20490;-61
2023/04/26 07:00:05;;;;;;;14.95;8.85;;;;;;;8.28;59.17;100592.72;5043483;28;20057;-61
2023/04/26 07:02:33;;;;;;;15.95;8.45;;;;;;;8.50;58.35;100593.03;5038509;28;20068;-62
2023/04/26 07:05:00;;;;;;;15.82;8.98;;;;;;;8.72;59.18;100588.84;5048860;28;20049;-57
2023/04/26 07:07:28;;;;;;;16.67;9.00;;;;;;;8.92;57.22;100588.56;5046112;28;20061;-57
2023/04/26 07:09:56;;;;;;;13.07;7.22;;;;;;;9.19;56.05;100589.78;5043068;28;20046;-57
2023/04/26 07:12:23;;;;;;;24.25;11.35;;;;;;;9.62;56.64;100584.09;5043625;28;20060;-57
2023/04/26 07:14:50;;;;;;;12.80;7.28;;;;;;;10.19;54.83;100585.81;5047312;28;20045;-57
2023/04/26 07:17:17;;;;;;;12.20;6.85;;;;;;;10.85;52.82;100587.19;5040739;28;20056;-57
2023/04/26 07:19:45;;;;;;;13.32;6.13;;;;;;;11.66;50.02;100577.97;5044380;28;20395;-58
2023/04/26 07:22:12;;;;;;;20.52;11.48;;;;;;;12.55;47.04;100567.69;5042298;28;20599;-58
2023/04/26 07:24:40;;;;;;;13.30;6.53;;;;;;;13.32;44.84;100570.06;5045093;28;20057;-58
2023/04/26 07:27:08;;;;;;;8.05;4.63;;;;;;;13.80;42.36;100564.22;5045440;28;20053;-58
2023/04/26 07:29:35;;;;;;;10.60;5.22;;;;;;;14.40;43.22;100555.88;5048354;28;20481;-62
2023/04/26 07:32:02;;;;;;;13.00;5.45;;;;;;;15.09;40.28;100567.81;5039825;28;20445;-62
2023/04/26 07:34:29;;;;;;;8.88;4.88;;;;;;;14.08;42.07;100569.38;5048568;28;20057;-62
2023/04/26 07:36:57;;;;;;;8.10;5.00;;;;;;;12.79;42.79;100567.25;5047241;28;20048;-61
2023/04/26 07:39:24;;;;;;;8.70;4.82;;;;;;;12.31;45.01;100570.09;5046279;28;20060;-62
2023/04/26 07:41:53;;;;;;;10.27;5.47;;;;;;;12.30;45.05;100577.63;5041137;28;20057;-62
2023/04/26 07:44:20;;;;;;;9.48;5.00;;;;;;;12.13;45.48;100578.41;5045854;28;20391;-62
2023/04/26 07:46:47;;;;;;;9.25;3.97;;;;;;;12.00;45.96;100582.13;5041845;28;20060;-62
2023/04/26 07:49:14;;;;;;;8.68;3.33;;;;;;;11.87;46.47;100575.47;5037470;28;20410;-62
2023/04/26 07:51:44;;;;;;;7.68;2.80;;;;;;;11.90;45.06;100576.81;5033337;28;20086;-62
2023/04/26 07:54:11;;;;;;;;;;;;;;;11.81;45.28;100567.56;5043497;28;20404;-57
2023/04/26 07:56:38;;;;;;;5.25;2.30;;;;;;;11.83;45.28;100577.25;5041459;28;19928;-62
2023/04/26 07:59:07;;;;;;;7.22;2.72;;;;;;;12.02;44.80;100574.25;5042067;28;20068;-61
2023/04/26 08:01:34;;;;;;;10.85;2.88;;;;;;;13.16;44.19;100576.13;5050852;28;20064;-61
2023/04/26 08:04:02;;;;;;;7.40;2.05;;;;;;;14.86;41.94;100570.94;5045594;28;20052;-62
2023/04/26 08:06:30;;;;;;;5.20;1.98;;;;;;;16.15;37.07;100567.22;5042422;28;20056;-63
2023/04/26 08:08:58;;;;;;;4.63;1.90;;;;;;;17.50;34.92;100559.72;5042004;28;20048;-62
2023/04/26 08:11:25;;;;;;;5.50;2.00;;;;;;;18.60;32.88;100552.50;5038943;28;20503;-62
2023/04/26 08:13:52;;;;;;;3.78;2.00;;;;;;;20.04;31.24;100548.66;5035192;28;20045;-58
2023/04/26 08:16:21;;;;;;;5.00;1.80;;;;;;;19.97;27.90;100550.53;5046577;28;20060;-59
2023/04/26 08:18:48;;;;;;;6.23;2.53;;;;;;;19.13;29.70;100552.09;5051134;28;20052;-58
2023/04/26 08:21:16;;;;;;;6.78;1.90;;;;;;;19.00;29.84;100557.06;5033992;28;20080;-58
2023/04/26 08:23:43;;;;;;;6.65;2.30;;;;;;;18.66;30.23;100557.47;5036042;28;20049;-58
2023/04/26 08:26:10;;;;;;;4.78;2.63;;;;;;;18.74;29.98;100547.19;5038157;28;20425;-58
2023/04/26 08:28:38;;;;;;;4.20;2.30;;;;;;;18.66;30.69;100548.22;5043128;28;20049;-58
2023/04/26 08:31:05;;;;;;;6.88;2.42;;;;;;;18.07;30.78;100550.00;5038438;28;20512;-58
2023/04/26 08:33:34;;;;;;;4.38;1.98;;;;;;;17.65;30.85;100554.13;5045452;28;20060;-58
2023/04/26 08:36:01;;;;;;;5.23;1.87;;;;;;;17.22;31.44;100554.94;5043473;28;20049;-62
2023/04/26 08:38:29;;;;;;;5.13;1.98;;;;;;;16.77;32.32;100547.50;5047510;28;20502;-62
2023/04/26 08:41:00;;;;;;;6.55;2.25;;;;;;;16.81;32.03;100551.28;5039412;28;20490;-62
2023/04/26 08:43:28;;;;;;;5.43;1.80;;;;;;;16.60;31.42;100549.41;5045705;28;20056;-58
2023/04/26 08:45:57;;;;;;;5.40;2.10;;;;;;;16.93;31.20;100547.63;5040255;28;20052;-58
2023/04/26 08:48:26;;;;;;;5.43;2.10;;;;;;;18.44;30.19;100547.72;5035377;28;20496;-62
2023/04/26 08:50:55;;;;;;;7.32;2.30;;;;;;;20.20;27.78;100545.69;5047005;28;20053;-62
2023/04/26 08:53:24;;;;;;;5.72;1.92;;;;;;;20.90;26.85;100535.06;5047312;28;20072;-62
2023/04/26 08:55:53;;;;;;;5.40;1.95;;;;;;;21.80;25.73;100542.63;5037707;28;20053;-58
2023/04/26 08:58:21;;;;;;;4.20;1.80;;;;;;;22.07;25.31;100539.66;5042815;28;20053;-58
2023/04/26 09:00:49;;;;;;;6.20;2.13;;;;;;;22.79;25.20;100535.34;5037746;28;20053;-59
2023/04/26 09:03:16;;;;;;;5.60;1.90;;;;;;;22.70;24.13;100546.25;5037339;28;20489;-62
2023/04/26 09:05:44;;;;;;;4.95;1.70;;;;;;;22.14;24.37;100545.38;5032993;28;20060;-62
2023/04/26 09:08:17;;;;;;;5.88;2.17;;;;;;;21.71;24.46;100546.97;5032489;28;20057;-61
2023/04/26 09:10:44;;;;;;;4.13;1.80;;;;;;;22.29;24.10;100544.31;5043858;28;20056;-62
2023/04/26 09:13:13;;;;;;;3.72;1.50;;;;;;;22.52;24.25;100546.13;5035462;28;20057;-57
2023/04/26 09:15:40;;;;;;;4.37;1.83;;;;;;;22.46;23.82;100544.84;5033701;28;20072;-57
2023/04/26 09:18:18;;;;;;;5.07;1.92;;;;;;;22.79;23.31;100548.75;5051174;28;20049;-57
2023/04/26 09:21:00;;;;;;;4.50;2.30;;;;;;;22.99;23.29;100541.53;5037668;28;20065;-57
2023/04/26 09:23:29;;;;;;;3.70;1.60;;;;;;;22.11;23.88;100548.97;5035988;28;20056;-58
2023/04/26 09:25:56;;;;;;;3.47;1.50;;;;;;;21.56;23.98;100546.00;5046059;28;20056;-58
2023/04/26 09:28:26;;;;;;;4.28;1.67;;;;;;;20.64;23.97;100550.88;5034417;28;20422;-58
2023/04/26 09:30:53;;;;;;;4.75;1.45;;;;;;;20.14;24.49;100552.88;5038710;28;20123;-57
2023/04/26 09:33:21;;;;;;;4.70;2.15;;;;;;;19.76;25.74;100553.78;5043979;28;20057;-62
2023/04/26 09:35:48;;;;;;;6.22;2.38;;;;;;;19.31;26.31;100556.09;5032368;28;20057;-62
2023/04/26 09:38:17;;;;;;;4.88;1.92;;;;;;;18.86;26.72;100549.91;5037210;28;20061;-61
2023/04/26 09:40:47;;;;;;;6.10;2.30;;;;;;;18.75;28.06;100548.00;5032220;28;20065;-61
2023/04/26 09:43:15;;;;;;;5.78;1.88;;;;;;;18.91;28.23;100554.44;5047517;28;20057;-61
2023/04/26 09:45:46;;;;;;;6.53;2.35;;;;;;;19.28;27.67;100554.03;5052536;28;20505;-61
2023/04/26 09:48:20;;;;;;;4.22;1.80;;;;;;;19.43;27.46;100550.31;5051101;28;20052;-62
2023/04/26 09:50:51;;;;;;;4.75;1.95;;;;;;;19.93;26.57;100546.81;5052502;28;20064;-61
2023/04/26 09:53:29;;;;;;;4.90;1.92;;;;;;;19.87;25.84;100549.97;5051036;28;20049;-62
2023/04/26 09:56:07;;;;;;;3.95;1.70;;;;;;;19.88;25.72;100553.59;5032710;28;20383;-62
2023/04/26 09:58:35;;;;;;;4.80;1.70;;;;;;;19.72;26.08;100556.56;5035967;28;20057;-62
2023/04/26 10:01:03;;;;;;;3.60;1.50;;;;;;;19.94;25.41;100551.28;5043938;28;20053;-62
2023/04/26 10:03:31;;;;;;;7.00;1.90;;;;;;;20.03;25.46;100549.84;5045218;28;20057;-58
2023/04/26 10:05:59;;;;;;;5.57;1.75;;;;;;;20.24;25.95;100543.75;5048917;28;20052;-58
2023/04/26 10:08:26;;;;;;;4.43;1.70;;;;;;;20.49;24.96;100532.00;5042989;28;20049;-58
2023/04/26 10:10:55;;;;;;;4.18;1.88;;;;;;;20.43;24.66;100537.19;5043305;28;20072;-62
2023/04/26 10:13:23;;;;;;;4.53;2.58;;;;;;;20.32;24.70;100535.38;5044387;28;20064;-62
2023/04/26 10:15:52;;;;;;;5.37;2.43;;;;;;;20.17;25.51;100535.13;5046134;28;20041;-63
2023/04/26 10:18:19;;;;;;;4.03;2.00;;;;;;;19.71;26.34;100534.31;5046880;28;20626;-62
2023/04/26 10:20:52;;;;;;;3.78;2.20;;;;;;;19.41;26.29;100538.56;5039800;28;20056;-62
2023/04/26 10:23:21;;;;;;;5.68;2.30;;;;;;;19.06;27.05;100533.81;5046990;28;20064;-62
2023/04/26 10:25:48;;;;;;;4.90;2.13;;;;;;;18.80;27.23;100528.00;5044409;28;20068;-62
2023/04/26 10:28:18;;;;;;;5.20;2.30;;;;;;;18.33;27.38;100517.59;5051171;28;20064;-62
2023/04/26 10:31:00;;;;;;;4.68;2.95;;;;;;;17.91;28.64;100530.28;5046810;28;20041;-62
2023/04/26 10:33:27;;;;;;;6.10;2.40;;;;;;;17.45;29.26;100529.84;5047649;28;20060;-62
2023/04/26 10:36:09;;;;;;;5.53;2.40;;;;;;;16.92;30.23;100524.28;5036974;28;20058;-62
2023/04/26 10:38:38;;;;;;;5.07;2.40;;;;;;;16.60;30.11;100532.53;5042448;28;20482;-62
2023/04/26 10:41:27;;;;;;;5.72;2.20;;;;;;;16.33;30.21;100525.63;5035447;28;20465;-62
2023/04/26 10:43:55;;;;;;;8.13;2.80;;;;;;;15.92;30.68;100526.72;5041513;28;20056;-62
2023/04/26 10:46:38;;;;;;;6.50;3.20;;;;;;;15.84;31.89;100531.25;5040114;28;20074;-62
2023/04/26 10:49:15;;;;;;;5.13;2.35;;;;;;;15.85;30.64;100532.06;5042265;28;20056;-63
2023/04/26 10:52:14;;;;;;;5.28;2.15;;;;;;;15.85;30.12;100518.84;5049052;28;20053;-62
2023/04/26 10:54:46;;;;;;;4.28;2.00;;;;;;;16.68;29.77;100525.13;5043168;28;20060;-62
2023/04/26 10:57:14;;;;;;;5.35;2.40;;;;;;;17.19;28.50;100513.41;5049383;28;20438;-58
2023/04/26 11:00:15;;;;;;;5.57;2.42;;;;;;;17.19;28.54;100516.22;5054834;28;20052;-58
2023/04/26 11:02:54;;;;;;;6.72;2.47;;;;;;;16.99;29.20;100513.25;5052278;28;20076;-59
2023/04/26 11:05:51;;;;;;;5.78;4.68;;;;;;;16.89;29.28;100519.38;5049789;28;20049;-59
2023/04/26 11:08:19;;;;;;;4.15;2.60;;;;;;;16.65;30.64;100525.84;5027171;28;20048;-58
2023/04/26 11:10:52;;;;;;;4.07;2.47;;;;;;;16.58;31.07;100523.63;5070173;28;20053;-59
2023/04/26 11:13:20;;;;;;;4.57;2.47;;;;;;;16.51;31.24;100529.03;5064956;28;20049;-58
2023/04/26 11:15:47;;;;;;;7.43;2.75;;;;;;;16.35;30.74;100525.28;5052947;28;20055;-59
2023/04/26 11:18:19;;;;;;;5.68;2.47;;;;;;;16.49;31.31;100530.56;5060913;28;20060;-59
2023/04/26 11:20:46;;;;;;;4.20;2.28;;;;;;;16.82;30.76;100522.00;5047017;28;20063;-59
2023/04/26 11:23:14;;;;;;;4.30;2.22;;;;;;;17.93;29.06;100516.66;5051936;28;20406;-59
2023/04/26 11:25:41;;;;;;;6.13;3.35;;;;;;;17.92;29.22;100519.84;5044033;28;20407;-59
2023/04/26 11:28:08;;;;;;;5.72;2.03;;;;;;;18.23;28.51;100517.00;5048297;28;20053;-59
2023/04/26 11:30:35;;;;;;;4.05;2.10;;;;;;;18.36;28.47;100522.53;5050270;28;20052;-59
2023/04/26 11:33:04;;;;;;;6.20;2.00;;;;;;;18.76;28.00;100522.25;5046674;28;20418;-59
2023/04/26 11:35:35;;;;;;;4.00;2.10;;;;;;;19.92;26.54;100522.59;5051947;28;20052;-59